createdAt,value
2022-08-03T00:01:50.283Z,97845.59
2022-08-03T00:04:17.421Z,97838.31
2022-08-03T00:06:44.290Z,97839.19
2022-08-03T00:09:11.359Z,97840.00
2022-08-03T00:11:38.680Z,97840.91
2022-08-03T00:14:06.565Z,97838.16
2022-08-03T00:16:33.213Z,97837.34
2022-08-03T00:19:00.833Z,97836.06
2022-08-03T00:21:28.933Z,97842.84
2022-08-03T00:23:55.762Z,97841.53
2022-08-03T00:26:22.865Z,97845.88
2022-08-03T00:28:50.205Z,97843.66
2022-08-03T00:31:20.389Z,97854.47
2022-08-03T00:34:04.294Z,97847.13
2022-08-03T00:36:31.082Z,97840.56
2022-08-03T00:38:58.365Z,97848.53
2022-08-03T00:41:25.106Z,97839.06
2022-08-03T00:43:51.830Z,97844.59
2022-08-03T00:46:21.734Z,97848.06
2022-08-03T00:48:50.464Z,97849.66
2022-08-03T00:51:18.135Z,97841.19
2022-08-03T00:53:45.797Z,97842.28
2022-08-03T00:56:16.765Z,97848.44
2022-08-03T00:58:47.211Z,97855.78
2022-08-03T01:01:14.657Z,97849.84
2022-08-03T01:03:42.034Z,97854.13
2022-08-03T01:06:25.540Z,97848.44
2022-08-03T01:09:07.683Z,97850.81
2022-08-03T01:12:00.134Z,97849.34
2022-08-03T01:14:42.180Z,97858.53
2022-08-03T01:17:23.216Z,97857.25
2022-08-03T01:19:58.657Z,97855.13
2022-08-03T01:22:40.419Z,97858.34
2022-08-03T01:25:36.423Z,97853.94
2022-08-03T01:28:32.671Z,97855.41
2022-08-03T01:31:04.278Z,97849.06
2022-08-03T01:33:42.202Z,97845.13
2022-08-03T01:36:23.144Z,97851.81
2022-08-03T01:38:55.315Z,97848.88
2022-08-03T01:41:29.171Z,97842.63
2022-08-03T01:44:28.359Z,97843.63
2022-08-03T01:46:49.197Z,97844.00
2022-08-03T01:49:17.338Z,97837.84
2022-08-03T01:52:02.777Z,97848.28
2022-08-03T01:54:34.943Z,97842.31
2022-08-03T01:57:02.914Z,97836.56
2022-08-03T01:59:32.499Z,97838.41
2022-08-03T02:02:28.225Z,97839.75
2022-08-03T02:04:48.971Z,97838.72
2022-08-03T02:07:16.459Z,97846.00
2022-08-03T02:09:46.918Z,97836.94
2022-08-03T02:12:15.313Z,97837.09
2022-08-03T02:14:45.562Z,97832.81
2022-08-03T02:17:12.943Z,97828.16
2022-08-03T02:19:41.063Z,97827.69
2022-08-03T02:22:11.010Z,97831.72
2022-08-03T02:24:38.518Z,97834.19
2022-08-03T02:27:21.224Z,97821.44
2022-08-03T02:29:53.340Z,97818.47
2022-08-03T02:32:24.310Z,97829.47
2022-08-03T02:34:54.859Z,97826.81
2022-08-03T02:37:27.424Z,97821.69
2022-08-03T02:39:57.930Z,97823.69
2022-08-03T02:42:26.955Z,97827.34
2022-08-03T02:44:57.110Z,97824.69
2022-08-03T02:47:26.761Z,97828.34
2022-08-03T02:49:55.853Z,97827.91
2022-08-03T02:52:25.545Z,97824.41
2022-08-03T02:54:56.249Z,97831.91
2022-08-03T02:57:25.772Z,97826.94
2022-08-03T02:59:53.564Z,97825.13
2022-08-03T03:02:21.043Z,97832.06
2022-08-03T03:05:51.816Z,97823.81
2022-08-03T03:07:51.823Z,97826.66
2022-08-03T03:10:22.640Z,97825.00
2022-08-03T03:12:52.499Z,97823.34
2022-08-03T03:15:19.487Z,97824.00
2022-08-03T03:17:47.624Z,97827.47
2022-08-03T03:20:16.074Z,97824.00
2022-08-03T03:22:58.723Z,97824.06
2022-08-03T03:25:25.567Z,97822.88
2022-08-03T03:27:52.555Z,97828.72
2022-08-03T03:30:19.551Z,97828.88
2022-08-03T03:32:46.310Z,97831.53
2022-08-03T03:35:14.062Z,97829.06
2022-08-03T03:37:40.896Z,97831.53
2022-08-03T03:40:09.091Z,97825.59
2022-08-03T03:42:36.055Z,97831.53
2022-08-03T03:45:07.170Z,97829.59
2022-08-03T03:47:35.675Z,97820.50
2022-08-03T03:50:04.322Z,97826.44
2022-08-03T03:52:32.220Z,97820.31
2022-08-03T03:55:00.981Z,97826.28
2022-08-03T03:57:28.506Z,97829.59
2022-08-03T03:59:55.304Z,97834.56
2022-08-03T04:02:21.981Z,97829.22
2022-08-03T04:05:07.280Z,97836.38
2022-08-03T04:08:14.754Z,97841.81
2022-08-03T04:10:59.113Z,97848.44
2022-08-03T04:13:33.455Z,97849.06
2022-08-03T04:16:01.407Z,97852.38
2022-08-03T04:18:31.412Z,97854.34
2022-08-03T04:21:04.390Z,97859.28
2022-08-03T04:23:34.843Z,97860.88
2022-08-03T04:26:03.475Z,97865.63
2022-08-03T04:28:32.631Z,97865.84
2022-08-03T04:31:01.388Z,97866.47
2022-08-03T04:33:31.402Z,97873.53
2022-08-03T04:36:03.459Z,97871.25
2022-08-03T04:38:36.703Z,97869.56
2022-08-03T04:41:04.282Z,97871.28
2022-08-03T04:43:33.770Z,97872.22
2022-08-03T04:46:01.718Z,97880.94
2022-08-03T04:48:28.985Z,97880.50
2022-08-03T04:50:55.985Z,97878.28
2022-08-03T04:53:22.879Z,97874.44
2022-08-03T04:55:50.076Z,97882.50
2022-08-03T04:58:16.759Z,97881.38
2022-08-03T05:00:45.527Z,97885.59
2022-08-03T05:03:20.262Z,97884.66
2022-08-03T05:05:52.947Z,97884.72
2022-08-03T05:08:27.640Z,97883.78
2022-08-03T05:10:55.870Z,97892.19
2022-08-03T05:13:25.977Z,97885.41
2022-08-03T05:15:52.774Z,97889.16
2022-08-03T05:18:19.455Z,97892.78
2022-08-03T05:20:46.133Z,97893.13
2022-08-03T05:23:12.791Z,97885.59
2022-08-03T05:25:39.519Z,97891.69
2022-08-03T05:28:06.244Z,97895.44
2022-08-03T05:30:33.937Z,97898.84
2022-08-03T05:33:03.463Z,97893.63
2022-08-03T05:35:57.424Z,97890.63
2022-08-03T05:38:24.010Z,97897.66
2022-08-03T05:41:22.974Z,97890.72
2022-08-03T05:43:44.961Z,97895.69
2022-08-03T05:46:13.133Z,97894.50
2022-08-03T05:48:40.651Z,97895.59
2022-08-03T05:51:11.393Z,97899.13
2022-08-03T05:53:39.617Z,97902.84
2022-08-03T05:56:13.997Z,97902.41
2022-08-03T05:58:48.386Z,97900.75
2022-08-03T06:01:16.828Z,97908.97
2022-08-03T06:03:43.988Z,97904.75
2022-08-03T06:06:11.756Z,97909.19
2022-08-03T06:08:39.008Z,97902.22
2022-08-03T06:11:05.799Z,97894.56
2022-08-03T06:13:32.818Z,97901.38
2022-08-03T06:15:59.467Z,97897.78
2022-08-03T06:18:26.131Z,97903.81
2022-08-03T06:20:53.267Z,97898.50
2022-08-03T06:23:20.595Z,97906.00
2022-08-03T06:25:47.680Z,97902.78
2022-08-03T06:31:02.370Z,97900.28
2022-08-03T06:34:30.881Z,97911.84
2022-08-03T06:36:16.274Z,97903.31
2022-08-03T06:38:42.929Z,97908.50
2022-08-03T06:41:09.662Z,97907.38
2022-08-03T06:43:37.942Z,97906.50
2022-08-03T06:46:24.420Z,97909.56
2022-08-03T06:48:52.338Z,97905.81
2022-08-03T06:51:19.018Z,97911.59
2022-08-03T06:53:45.682Z,97909.34
2022-08-03T06:56:12.387Z,97907.09
2022-08-03T06:58:39.071Z,97908.00
2022-08-03T07:01:05.801Z,97907.19
2022-08-03T07:03:32.545Z,97907.56
2022-08-03T07:05:59.784Z,97912.81
2022-08-03T07:08:33.900Z,97914.47
2022-08-03T07:11:01.319Z,97907.69
2022-08-03T07:13:28.307Z,97916.94
2022-08-03T07:15:56.334Z,97923.13
2022-08-03T07:18:28.308Z,97925.56
2022-08-03T07:20:57.725Z,97915.88
2022-08-03T07:23:25.459Z,97914.16
2022-08-03T07:25:52.333Z,97913.97
2022-08-03T07:28:20.257Z,97915.97
2022-08-03T07:30:47.297Z,97914.50
2022-08-03T07:33:15.102Z,97929.31
2022-08-03T07:35:41.817Z,97917.47
2022-08-03T07:38:08.472Z,97924.63
2022-08-03T07:40:37.404Z,97925.59
2022-08-03T07:43:05.007Z,97921.72
2022-08-03T07:45:32.120Z,97924.22
2022-08-03T07:47:58.797Z,97917.72
2022-08-03T07:50:26.192Z,97917.84
2022-08-03T07:52:54.051Z,97913.22
2022-08-03T07:55:22.848Z,97912.47
2022-08-03T07:58:02.847Z,97913.16
2022-08-03T08:00:29.820Z,97912.28
2022-08-03T08:02:56.467Z,97910.06
2022-08-03T08:05:23.141Z,97911.28
2022-08-03T08:07:51.756Z,97907.91
2022-08-03T08:10:18.881Z,97915.03
2022-08-03T08:12:45.689Z,97906.97
2022-08-03T08:15:12.504Z,97921.41
2022-08-03T08:17:50.677Z,97909.28
2022-08-03T08:20:27.804Z,97921.66
2022-08-03T08:23:00.937Z,97918.78
2022-08-03T08:25:30.102Z,97919.09
2022-08-03T08:28:31.598Z,97914.91
2022-08-03T08:30:43.656Z,97923.69
2022-08-03T08:33:22.171Z,97916.47
2022-08-03T08:35:51.895Z,97917.09
2022-08-03T08:38:18.550Z,97914.56
2022-08-03T08:40:45.729Z,97914.72
2022-08-03T08:43:12.461Z,97915.28
2022-08-03T08:45:41.127Z,97905.28
2022-08-03T08:48:10.639Z,97911.84
2022-08-03T08:50:37.851Z,97906.78
2022-08-03T08:53:09.821Z,97910.25
2022-08-03T08:55:59.227Z,97901.47
2022-08-03T08:58:31.107Z,97909.88
2022-08-03T09:00:58.501Z,97900.22
2022-08-03T09:03:29.553Z,97907.81
2022-08-03T09:06:00.216Z,97913.09
2022-08-03T09:08:26.925Z,97906.00
2022-08-03T09:10:53.610Z,97917.41
2022-08-03T09:13:20.451Z,97901.69
2022-08-03T09:15:59.077Z,97896.78
2022-08-03T09:18:33.086Z,97893.72
2022-08-03T09:21:30.533Z,97899.06
2022-08-03T09:24:03.722Z,97898.91
2022-08-03T09:26:34.256Z,97901.28
2022-08-03T09:29:14.845Z,97897.53
2022-08-03T09:31:46.933Z,97891.09
2022-08-03T09:34:17.253Z,97894.59
2022-08-03T09:36:45.666Z,97895.03
2022-08-03T09:39:14.622Z,97890.28
2022-08-03T09:41:43.935Z,97885.03
2022-08-03T09:44:24.453Z,97884.78
2022-08-03T09:46:56.857Z,97883.03
2022-08-03T09:49:24.499Z,97879.16
2022-08-03T09:52:32.330Z,97875.44
2022-08-03T09:54:39.363Z,97879.13
2022-08-03T09:57:06.117Z,97872.66
2022-08-03T09:59:33.986Z,97876.00
2022-08-03T10:02:01.868Z,97863.13
2022-08-03T10:04:28.943Z,97859.91
2022-08-03T10:07:10.526Z,97862.03
2022-08-03T10:09:38.116Z,97854.66
2022-08-03T10:12:09.629Z,97856.31
2022-08-03T10:14:42.001Z,97862.53
2022-08-03T10:17:11.928Z,97854.81
2022-08-03T10:19:38.729Z,97856.59
2022-08-03T10:22:16.739Z,97851.25
2022-08-03T10:24:52.490Z,97856.13
2022-08-03T10:27:20.691Z,97848.00
2022-08-03T10:29:53.335Z,97843.78
2022-08-03T10:32:30.327Z,97841.16
2022-08-03T10:35:19.055Z,97838.28
2022-08-03T10:38:00.694Z,97849.25
2022-08-03T10:40:49.461Z,97843.94
2022-08-03T10:43:26.004Z,97835.56
2022-08-03T10:45:52.809Z,97832.44
2022-08-03T10:48:20.340Z,97827.41
2022-08-03T10:50:49.539Z,97834.91
2022-08-03T10:53:18.667Z,97833.59
2022-08-03T10:56:05.587Z,97826.44
2022-08-03T10:58:38.286Z,97821.88
2022-08-03T11:01:59.920Z,97822.50
2022-08-03T11:04:29.750Z,97821.16
2022-08-03T11:07:15.651Z,97823.63
2022-08-03T11:09:44.454Z,97815.00
2022-08-03T11:12:31.081Z,97825.75
2022-08-03T11:15:04.945Z,97819.09
2022-08-03T11:17:33.726Z,97817.00
2022-08-03T11:20:12.753Z,97818.06
2022-08-03T11:22:54.557Z,97810.03
2022-08-03T11:25:53.488Z,97814.50
2022-08-03T11:28:28.742Z,97810.22
2022-08-03T11:30:55.604Z,97808.25
2022-08-03T11:33:32.085Z,97807.53
2022-08-03T11:36:01.074Z,97805.97
2022-08-03T11:38:27.907Z,97806.00
2022-08-03T11:40:54.799Z,97802.34
2022-08-03T11:43:32.024Z,97796.03
2022-08-03T11:46:07.026Z,97793.09
2022-08-03T11:48:33.719Z,97792.44
2022-08-03T11:51:01.945Z,97782.22
2022-08-03T11:53:28.960Z,97784.72
2022-08-03T11:55:59.336Z,97789.06
2022-08-03T11:59:15.292Z,97781.06
2022-08-03T12:01:13.638Z,97776.03
2022-08-03T12:03:40.380Z,97779.53
2022-08-03T12:06:11.438Z,97773.25
2022-08-03T12:08:39.433Z,97772.84
2022-08-03T12:11:07.791Z,97757.28
2022-08-03T12:14:36.707Z,97769.22
2022-08-03T12:16:34.005Z,97758.88
2022-08-03T12:19:05.072Z,97764.44
2022-08-03T12:21:32.261Z,97755.66
2022-08-03T12:24:04.062Z,97767.59
2022-08-03T12:26:43.054Z,97760.31
2022-08-03T12:29:18.978Z,97757.22
2022-08-03T12:31:45.637Z,97764.44
2022-08-03T12:34:13.631Z,97752.38
2022-08-03T12:36:52.529Z,97746.88
2022-08-03T12:39:24.042Z,97746.06
2022-08-03T12:41:54.334Z,97745.63
2022-08-03T12:44:31.356Z,97737.31
2022-08-03T12:46:59.076Z,97737.22
2022-08-03T12:49:26.638Z,97732.09
2022-08-03T12:51:53.475Z,97737.72
2022-08-03T12:54:25.357Z,97730.09
2022-08-03T12:57:16.232Z,97727.66
2022-08-03T12:59:52.704Z,97724.13
2022-08-03T13:02:25.772Z,97724.78
2022-08-03T13:04:54.638Z,97716.53
2022-08-03T13:07:23.266Z,97712.81
2022-08-03T13:09:55.546Z,97707.34
2022-08-03T13:12:27.679Z,97707.75
2022-08-03T13:14:59.597Z,97707.59
2022-08-03T13:17:27.156Z,97714.91
2022-08-03T13:19:54.101Z,97700.47
2022-08-03T13:22:23.358Z,97692.72
2022-08-03T13:24:53.050Z,97703.66
2022-08-03T13:28:02.117Z,97706.69
2022-08-03T13:30:11.107Z,97707.25
2022-08-03T13:32:38.200Z,97698.44
2022-08-03T13:35:05.653Z,97691.19
2022-08-03T13:37:32.625Z,97688.69
2022-08-03T13:40:02.573Z,97693.47
2022-08-03T13:42:31.485Z,97682.47
2022-08-03T13:44:59.132Z,97687.31
2022-08-03T13:47:26.389Z,97687.66
2022-08-03T13:49:59.728Z,97684.53
2022-08-03T13:52:33.482Z,97679.56
2022-08-03T13:55:00.998Z,97678.94
2022-08-03T13:58:06.462Z,97668.72
2022-08-03T14:00:28.232Z,97662.63
2022-08-03T14:03:16.562Z,97661.78
2022-08-03T14:05:44.217Z,97662.16
2022-08-03T14:08:11.869Z,97654.94
2022-08-03T14:10:43.640Z,97658.75
2022-08-03T14:13:17.588Z,97646.94
2022-08-03T14:15:50.195Z,97648.97
2022-08-03T14:18:28.750Z,97651.84
2022-08-03T14:21:06.907Z,97645.66
2022-08-03T14:23:35.337Z,97644.44
2022-08-03T14:26:01.989Z,97643.41
2022-08-03T14:28:28.733Z,97645.88
2022-08-03T14:30:56.236Z,97645.03
2022-08-03T14:33:23.808Z,97649.72
2022-08-03T14:35:51.664Z,97644.41
2022-08-03T14:38:18.547Z,97638.22
2022-08-03T14:40:45.392Z,97643.41
2022-08-03T14:43:12.913Z,97643.13
2022-08-03T14:45:40.602Z,97643.44
2022-08-03T14:49:02.257Z,97636.72
2022-08-03T14:50:55.211Z,97632.72
2022-08-03T14:53:22.584Z,97633.72
2022-08-03T14:55:51.518Z,97635.03
2022-08-03T14:58:23.118Z,97631.28
2022-08-03T15:00:51.445Z,97628.66
2022-08-03T15:03:25.770Z,97622.69
2022-08-03T15:05:54.288Z,97620.06
2022-08-03T15:08:22.456Z,97629.84
2022-08-03T15:10:50.608Z,97617.88
2022-08-03T15:13:18.316Z,97615.13
2022-08-03T15:15:45.349Z,97629.28
2022-08-03T15:18:12.308Z,97626.56
2022-08-03T15:20:44.924Z,97625.31
2022-08-03T15:23:14.580Z,97616.91
2022-08-03T15:26:03.873Z,97619.34
2022-08-03T15:28:29.371Z,97623.41
2022-08-03T15:30:56.220Z,97615.25
2022-08-03T15:33:22.894Z,97620.16
2022-08-03T15:35:49.979Z,97617.41
2022-08-03T15:38:16.965Z,97622.88
2022-08-03T15:40:43.768Z,97617.50
2022-08-03T15:43:10.543Z,97617.47
2022-08-03T15:45:37.310Z,97612.03
2022-08-03T15:48:05.820Z,97610.97
2022-08-03T15:50:32.659Z,97608.53
2022-08-03T15:52:59.476Z,97605.25
2022-08-03T15:55:26.225Z,97597.91
2022-08-03T15:59:04.203Z,97607.44
2022-08-03T16:00:41.410Z,97602.59
2022-08-03T16:03:08.331Z,97605.03
2022-08-03T16:05:35.366Z,97600.97
2022-08-03T16:08:03.877Z,97603.38
2022-08-03T16:10:32.302Z,97607.22
2022-08-03T16:13:00.089Z,97599.06
2022-08-03T16:15:27.240Z,97601.75
2022-08-03T16:17:53.931Z,97594.13
2022-08-03T16:20:31.564Z,97593.31
2022-08-03T16:23:06.985Z,97592.22
2022-08-03T16:25:44.363Z,97596.84
2022-08-03T16:28:16.852Z,97597.38
2022-08-03T16:30:45.320Z,97596.56
2022-08-03T16:33:17.319Z,97599.25
2022-08-03T16:35:45.217Z,97594.59
2022-08-03T16:38:16.565Z,97595.44
2022-08-03T16:40:47.063Z,97598.69
2022-08-03T16:43:18.119Z,97594.84
2022-08-03T16:45:48.354Z,97598.09
2022-08-03T16:48:16.297Z,97595.13
2022-08-03T16:50:44.329Z,97590.16
2022-08-03T16:53:16.684Z,97595.03
2022-08-03T16:55:52.292Z,97597.72
2022-08-03T16:58:34.481Z,97588.97
2022-08-03T17:01:22.007Z,97596.81
2022-08-03T17:04:03.556Z,97601.41
2022-08-03T17:06:35.287Z,97601.94
2022-08-03T17:09:10.960Z,97596.47
2022-08-03T17:11:46.612Z,97603.69
2022-08-03T17:14:28.548Z,97601.94
2022-08-03T17:17:02.628Z,97601.13
2022-08-03T17:19:32.662Z,97607.03
2022-08-03T17:22:17.873Z,97618.84
2022-08-03T17:24:47.386Z,97620.97
2022-08-03T17:28:41.380Z,97623.66
2022-08-03T17:30:08.799Z,97619.19
2022-08-03T17:32:42.876Z,97621.72
2022-08-03T17:35:20.913Z,97618.00
2022-08-03T17:37:57.573Z,97622.72
2022-08-03T17:40:29.336Z,97623.97
2022-08-03T17:42:59.558Z,97629.75
2022-08-03T17:45:26.378Z,97627.94
2022-08-03T17:48:13.067Z,97631.28
2022-08-03T17:51:22.010Z,97637.09
2022-08-03T17:54:18.506Z,97646.38
2022-08-03T17:56:46.624Z,97638.88
2022-08-03T17:59:13.378Z,97639.69
2022-08-03T18:02:30.531Z,97632.81
2022-08-03T18:05:16.483Z,97644.59
2022-08-03T18:07:59.562Z,97649.00
2022-08-03T18:10:35.985Z,97642.88
2022-08-03T18:13:22.925Z,97647.78
2022-08-03T18:16:01.666Z,97653.34
2022-08-03T18:18:36.906Z,97665.28
2022-08-03T18:21:09.174Z,97661.91
2022-08-03T18:23:44.275Z,97664.06
2022-08-03T18:26:12.186Z,97665.75
2022-08-03T18:28:39.434Z,97668.25
2022-08-03T18:31:11.663Z,97662.88
2022-08-03T18:34:17.260Z,97666.81
2022-08-03T18:36:29.597Z,97673.66
2022-08-03T18:38:58.494Z,97679.53
2022-08-03T18:41:33.550Z,97678.25
2022-08-03T18:47:07.160Z,97687.09
2022-08-03T18:50:18.942Z,97684.19
2022-08-03T18:53:01.778Z,97693.88
2022-08-03T18:55:35.678Z,97697.13
2022-08-03T18:58:02.573Z,97704.47
2022-08-03T19:00:54.250Z,97699.88
2022-08-03T19:03:24.660Z,97703.50
2022-08-03T19:06:02.784Z,97703.06
2022-08-03T19:08:47.899Z,97709.84
2022-08-03T19:11:28.223Z,97708.63
2022-08-03T19:13:59.198Z,97715.03
2022-08-03T19:16:38.882Z,97712.63
2022-08-03T19:21:59.476Z,97717.06
2022-08-03T19:24:26.933Z,97718.63
2022-08-03T19:26:56.019Z,97719.78
2022-08-03T19:29:25.184Z,97716.78
2022-08-03T19:32:19.185Z,97719.56
2022-08-03T19:34:50.692Z,97730.34
2022-08-03T19:37:19.561Z,97724.88
2022-08-03T19:39:56.686Z,97722.25
2022-08-03T19:42:31.464Z,97725.81
2022-08-03T19:45:11.270Z,97722.31
2022-08-03T19:47:47.546Z,97722.16
2022-08-03T19:50:15.799Z,97730.25
2022-08-03T19:52:46.957Z,97737.75
2022-08-03T19:55:15.921Z,97735.97
2022-08-03T19:57:50.190Z,97741.16
2022-08-03T20:00:20.036Z,97740.19
2022-08-03T20:02:53.800Z,97745.81
2022-08-03T20:05:20.796Z,97742.38
2022-08-03T20:07:50.167Z,97740.94
2022-08-03T20:10:18.191Z,97751.06
2022-08-03T20:12:46.555Z,97748.44
2022-08-03T20:15:14.575Z,97752.38
2022-08-03T20:17:54.398Z,97752.78
2022-08-03T20:20:35.137Z,97753.22
2022-08-03T20:23:07.458Z,97757.16
2022-08-03T20:25:57.261Z,97760.47
2022-08-03T20:28:35.166Z,97751.41
2022-08-03T20:31:18.828Z,97756.38
2022-08-03T20:33:49.364Z,97760.06
2022-08-03T20:36:18.092Z,97751.84
2022-08-03T20:38:47.666Z,97753.72
2022-08-03T20:41:16.569Z,97760.94
2022-08-03T20:43:43.949Z,97755.97
2022-08-03T20:46:32.187Z,97757.47
2022-08-03T20:48:58.868Z,97755.16
2022-08-03T20:51:50.603Z,97752.28
2022-08-03T20:54:28.724Z,97754.50
2022-08-03T20:56:57.757Z,97758.00
2022-08-03T20:59:34.822Z,97755.94
2022-08-03T21:02:19.920Z,97754.84
2022-08-03T21:04:56.196Z,97758.59
2022-08-03T21:07:24.247Z,97766.22
2022-08-03T21:09:53.661Z,97764.78
2022-08-03T21:12:50.220Z,97762.09
2022-08-03T21:12:59.026Z,97684.00
2022-08-03T21:13:11.192Z,97726.00
2022-08-03T21:16:06.262Z,97759.25
2022-08-03T21:18:12.755Z,97759.91
2022-08-03T21:20:43.411Z,97754.16
2022-08-03T21:23:12.885Z,97755.28
2022-08-03T21:26:00.840Z,97759.41
2022-08-03T21:28:28.018Z,97766.81
2022-08-03T21:30:54.801Z,97761.50
2022-08-03T21:33:26.494Z,97773.88
2022-08-03T21:35:53.419Z,97776.94
2022-08-03T21:38:20.578Z,97776.56
2022-08-03T21:40:56.913Z,97775.13
2022-08-03T21:43:23.664Z,97778.81
2022-08-03T21:45:54.667Z,97774.09
2022-08-03T21:48:25.066Z,97773.47
2022-08-03T21:50:52.599Z,97787.28
2022-08-03T21:53:19.991Z,97788.75
2022-08-03T21:56:11.214Z,97782.19
2022-08-03T21:58:53.236Z,97787.31
2022-08-03T22:01:24.001Z,97784.88
2022-08-03T22:03:56.512Z,97790.03
2022-08-03T22:06:27.730Z,97786.31
2022-08-03T22:08:54.580Z,97796.00
2022-08-03T22:11:21.575Z,97790.88
2022-08-03T22:13:48.751Z,97793.28
2022-08-03T22:16:15.771Z,97793.25
2022-08-03T22:18:44.588Z,97795.31
2022-08-03T22:21:12.816Z,97795.75
2022-08-03T22:23:48.875Z,97793.69
2022-08-03T22:26:32.352Z,97788.94
2022-08-03T22:29:07.441Z,97797.38
2022-08-03T22:31:58.285Z,97793.69
2022-08-03T22:34:26.430Z,97790.38
2022-08-03T22:36:57.180Z,97795.31
2022-08-03T22:39:29.219Z,97793.25
2022-08-03T22:41:59.907Z,97786.28
2022-08-03T22:44:27.660Z,97791.19
2022-08-03T22:46:55.519Z,97795.53
2022-08-03T22:49:22.754Z,97792.00
2022-08-03T22:51:51.715Z,97793.22
2022-08-03T22:54:18.772Z,97787.69
2022-08-03T22:56:50.337Z,97798.19
2022-08-03T22:59:39.077Z,97791.59
2022-08-03T23:02:20.339Z,97790.75
2022-08-03T23:04:54.907Z,97791.19
2022-08-03T23:07:30.180Z,97780.88
2022-08-03T23:09:58.172Z,97781.69
2022-08-03T23:12:29.657Z,97793.38
2022-08-03T23:15:00.371Z,97793.19
2022-08-03T23:17:30.096Z,97787.03
2022-08-03T23:20:01.838Z,97785.34
2022-08-03T23:22:29.969Z,97785.13
2022-08-03T23:24:59.082Z,97787.56
2022-08-03T23:27:27.728Z,97786.06
2022-08-03T23:29:56.163Z,97790.53
2022-08-03T23:32:26.523Z,97785.97
2022-08-03T23:35:14.791Z,97786.16
2022-08-03T23:38:22.411Z,97786.31
2022-08-03T23:40:30.986Z,97790.41
2022-08-03T23:42:58.329Z,97785.09
2022-08-03T23:45:27.664Z,97785.69
2022-08-03T23:47:54.740Z,97783.66
2022-08-03T23:50:21.833Z,97780.13
2022-08-03T23:53:01.373Z,97777.22
2022-08-03T23:55:54.236Z,97778.41
2022-08-03T23:58:23.519Z,97772.00
